createdAt,value
2019-06-10T00:06:51.000Z,24.19
2019-06-10T00:16:51.000Z,24.16
2019-06-10T00:26:53.000Z,24.16
2019-06-10T00:36:51.000Z,24.15
2019-06-10T00:46:51.000Z,24.12
2019-06-10T00:56:51.000Z,24.11
2019-06-10T01:06:51.000Z,24.08
2019-06-10T01:16:51.000Z,24.06
2019-06-10T01:26:51.000Z,24.06
2019-06-10T01:36:55.000Z,24.07
2019-06-10T01:46:51.000Z,24.06
2019-06-10T01:56:52.000Z,24.02
2019-06-10T02:06:51.000Z,24
2019-06-10T02:16:52.000Z,23.99
2019-06-10T02:26:51.000Z,23.97
2019-06-10T02:36:51.000Z,23.97
2019-06-10T02:46:52.000Z,23.94
2019-06-10T02:56:52.000Z,23.89
2019-06-10T03:06:53.000Z,23.88
2019-06-10T03:16:52.000Z,23.87
2019-06-10T03:26:52.000Z,23.85
2019-06-10T03:36:53.000Z,23.83
2019-06-10T03:46:52.000Z,23.81
2019-06-10T03:56:52.000Z,23.81
2019-06-10T04:06:52.000Z,23.79
2019-06-10T04:16:52.000Z,23.79
2019-06-10T04:26:52.000Z,23.79
2019-06-10T04:36:52.000Z,23.74
2019-06-10T04:46:52.000Z,23.73
2019-06-10T04:56:52.000Z,23.74
2019-06-10T05:06:55.000Z,23.73
2019-06-10T05:16:52.000Z,23.71
2019-06-10T05:26:53.000Z,23.7
2019-06-10T05:36:52.000Z,23.7
2019-06-10T05:46:52.000Z,23.7
2019-06-10T05:56:54.000Z,23.72
2019-06-10T06:06:53.000Z,23.72
2019-06-10T06:16:52.000Z,23.73
2019-06-10T06:26:52.000Z,23.78
2019-06-10T06:36:52.000Z,23.8
2019-06-10T06:46:52.000Z,23.78
2019-06-10T06:56:52.000Z,23.81
2019-06-10T07:06:52.000Z,23.81
2019-06-10T07:16:54.000Z,23.83
2019-06-10T07:26:52.000Z,23.86
2019-06-10T07:36:52.000Z,23.87
2019-06-10T07:46:52.000Z,23.89
2019-06-10T07:56:52.000Z,23.95
2019-06-10T08:06:52.000Z,23.98
2019-06-10T08:16:52.000Z,24.09
2019-06-10T08:26:52.000Z,24.25
2019-06-10T08:36:53.000Z,24.36
2019-06-10T08:46:52.000Z,24.41
2019-06-10T08:56:52.000Z,24.42
2019-06-10T09:06:52.000Z,24.43
2019-06-10T09:16:52.000Z,24.46
2019-06-10T09:26:55.000Z,24.5
2019-06-10T09:36:52.000Z,24.6
2019-06-10T09:46:52.000Z,24.67
2019-06-10T09:56:52.000Z,24.74
2019-06-10T10:06:53.000Z,24.79
2019-06-10T10:16:52.000Z,24.84
2019-06-10T10:26:52.000Z,24.93
2019-06-10T10:36:52.000Z,25.02
2019-06-10T10:46:52.000Z,25.06
2019-06-10T10:56:52.000Z,25.18
2019-06-10T11:06:57.000Z,25.26
2019-06-10T11:16:56.000Z,25.3
2019-06-10T11:26:53.000Z,25.39
2019-06-10T11:36:53.000Z,25.47
2019-06-10T11:46:53.000Z,25.49
2019-06-10T11:56:53.000Z,25.54
2019-06-10T12:06:53.000Z,25.62
2019-06-10T12:26:53.000Z,25.71
2019-06-10T12:36:53.000Z,25.73
2019-06-10T12:46:54.000Z,25.77
2019-06-10T12:56:54.000Z,25.79
2019-06-10T13:06:53.000Z,25.87
2019-06-10T13:16:54.000Z,25.89
2019-06-10T13:36:53.000Z,25.89
2019-06-10T13:46:53.000Z,25.81
2019-06-10T13:56:54.000Z,25.73
2019-06-10T14:06:53.000Z,25.63
2019-06-10T14:16:53.000Z,25.3
2019-06-10T14:26:53.000Z,25.31
2019-06-10T14:36:53.000Z,25.51
2019-06-10T14:46:53.000Z,25.49
2019-06-10T14:56:54.000Z,25.32
2019-06-10T15:06:54.000Z,25.51
2019-06-10T15:16:53.000Z,25.66
2019-06-10T15:26:53.000Z,25.67
2019-06-10T15:36:53.000Z,25.7
2019-06-10T15:46:53.000Z,25.49
2019-06-10T15:56:53.000Z,25.6
2019-06-10T16:16:53.000Z,25.58
2019-06-10T16:26:53.000Z,25.56
2019-06-10T16:36:53.000Z,25.58
2019-06-10T16:46:53.000Z,25.58
2019-06-10T16:56:53.000Z,25.69
2019-06-10T17:06:53.000Z,25.67
2019-06-10T17:16:53.000Z,25.23
2019-06-10T17:26:53.000Z,24.95
2019-06-10T17:36:53.000Z,25.03
2019-06-10T17:46:53.000Z,25.24
2019-06-10T17:56:53.000Z,25.29
2019-06-10T18:06:53.000Z,25.21
2019-06-10T18:16:53.000Z,25.16
2019-06-10T18:26:53.000Z,25.02
2019-06-10T18:36:54.000Z,24.93
2019-06-10T18:46:53.000Z,24.89
2019-06-10T18:56:54.000Z,24.86
2019-06-10T19:06:53.000Z,24.79
2019-06-10T19:16:56.000Z,24.76
2019-06-10T19:26:54.000Z,24.45
2019-06-10T19:36:55.000Z,24.35
2019-06-10T19:46:54.000Z,24.49
2019-06-10T20:06:54.000Z,24.74
2019-06-10T20:16:54.000Z,24.72
2019-06-10T20:26:57.000Z,24.76
2019-06-10T20:36:56.000Z,24.74
2019-06-10T20:46:54.000Z,24.73
2019-06-10T20:56:54.000Z,24.69
2019-06-10T21:06:54.000Z,24.71
2019-06-10T21:16:54.000Z,24.66
2019-06-10T21:26:54.000Z,24.69
2019-06-10T21:36:55.000Z,24.69
2019-06-10T21:46:54.000Z,24.77
2019-06-10T21:56:56.000Z,24.77
2019-06-10T22:06:54.000Z,24.76
2019-06-10T22:16:54.000Z,24.72
2019-06-10T22:36:54.000Z,24.65
2019-06-10T22:46:54.000Z,24.64
2019-06-10T22:56:54.000Z,24.62
2019-06-10T23:06:54.000Z,24.59
2019-06-10T23:16:54.000Z,24.58
2019-06-10T23:26:54.000Z,24.56
2019-06-10T23:36:54.000Z,24.56
2019-06-10T23:46:54.000Z,24.54
2019-06-10T23:56:54.000Z,24.49
